Latest Coastal Weather Observations for Port Kembla Harbour

IDN60701

Issued at 2:25 pm EST Friday 25 April 2014 (issued every 10 minutes, with the page automatically refreshed every 10 minutes)

About coastal observations | Map of coastal stations | Coastal observations for NSW | Marine services | Other Formats
Station Details ID: 068253 Name: PORT KEMBLA NTC AWS Lat: -34.47 Lon: 150.91 Height: 0.0 m
Data from the previous 72 hours. | See also: Recent months for locations in New South Wales
Date/Time
EST
Temp

°C
Wind Pressure Rain
since 9am
mm
Weather Cloud Vis
km
Sea
Height
m
Swell
Dir
 
Speed
knots
Gust
knots
hPa Trend Height
m
Period
s
Dir
25/02:00pm 18.2 CALM 0 2 1020.0 - - - - - - - - -
25/01:30pm 18.0 ENE 2 3 1020.4 - - - - - - - - -
25/01:00pm 18.3 NE 2 3 1020.7 - - - - - - - - -
25/12:30pm 18.3 ESE 2 4 1021.2 - - - - - - - - -
25/12:00pm 18.0 SW 3 6 1021.7 - - - - - - - - -
25/11:30am 18.0 SSE 3 7 1022.1 - - - - - - - - -
25/11:00am 17.9 SE 4 8 1022.3 - - - - - - - - -
25/10:30am 18.6 SSE 3 6 1022.6 - - - - - - - - -
25/10:00am 18.4 S 3 8 1022.9 - - - - - - - - -
25/09:30am 18.4 S 3 7 1023.1 - - - - - - - - -
25/09:00am 17.9 SW 4 6 1023.1 - - - - - - - - -
25/08:30am 17.7 SW 6 9 1022.6 - - - - - - - - -
25/08:00am 17.8 SW 5 9 1021.9 - - - - - - - - -
25/07:30am 17.3 SW 5 8 1021.3 - - - - - - - - -
25/07:00am 17.3 SW 6 9 1021.2 - - - - - - - - -
25/06:30am 17.0 SW 6 8 1021.1 - - - - - - - - -
25/06:00am 16.9 SW 7 10 1020.9 - - - - - - - - -
25/05:30am 16.6 SW 6 9 1020.5 - - - - - - - - -
25/05:00am 17.1 SW 7 10 1020.3 - - - - - - - - -
25/04:30am 17.6 WSW 9 13 1019.9 - - - - - - - - -
25/04:00am 18.0 SW 7 10 1019.7 - - - - - - - - -
25/03:30am 19.7 SSE 6 11 1019.5 - - - - - - - - -
25/03:00am 19.7 SE 9 15 1019.5 - - - - - - - - -
25/02:30am 19.3 S 9 16 1019.6 - - - - - - - - -
25/02:00am 19.8 SSE 8 14 1019.5 - - - - - - - - -
25/01:30am 19.8 SSE 8 15 1019.6 - - - - - - - - -
25/01:00am 19.7 SSE 8 16 1019.5 - - - - - - - - -
25/12:30am 20.0 SSE 9 18 1019.4 - - - - - - - - -
25/12:00am 20.0 SSE 9 17 1019.1 - - - - - - - - -
 
Date/Time
EST
Temp

°C
Wind Pressure Rain
since 9am
mm
Weather Cloud Vis
km
Sea
Height
m
Swell
Dir
 
Speed
knots
Gust
knots
hPa Trend Height
m
Period
s
Dir
24/11:30pm 19.7 S 8 14 1019.0 - - - - - - - - -
24/11:00pm 19.3 S 10 16 1018.8 - - - - - - - - -
24/10:30pm 19.4 SSW 5 14 1018.7 - - - - - - - - -
24/10:00pm 19.0 SSW 8 14 1018.6 - - - - - - - - -
24/09:30pm 21.0 SSE 8 15 1018.1 - - - - - - - - -
24/09:00pm 21.2 SSE 9 18 1017.5 - - - - - - - - -
24/08:30pm 21.8 S 8 17 1016.9 - - - - - - - - -
24/08:00pm 22.3 WSW 5 7 1015.9 - - - - - - - - -
24/07:30pm 22.3 WSW 5 7 1015.1 - - - - - - - - -
24/07:00pm 22.6 WSW 5 7 1014.8 - - - - - - - - -
24/06:30pm 24.0 WSW 5 7 1014.0 - - - - - - - - -
24/06:00pm 24.6 WSW 7 9 1013.3 - - - - - - - - -
24/05:30pm 25.5 WSW 9 11 1012.7 - - - - - - - - -
24/05:00pm 26.2 W 11 15 1012.0 - - - - - - - - -
24/04:30pm 26.8 WSW 9 13 1011.7 - - - - - - - - -
24/04:00pm 27.4 W 10 15 1011.6 - - - - - - - - -
24/03:30pm 25.2 ESE 4 8 1011.2 - - - - - - - - -
24/03:00pm 23.8 ESE 7 11 1010.9 - - - - - - - - -
24/02:30pm 24.6 SE 7 10 1010.5 - - - - - - - - -
24/02:00pm 27.6 W 14 21 1010.2 - - - - - - - - -
24/01:30pm 27.4 W 13 19 1010.2 - - - - - - - - -
24/01:00pm 27.1 W 11 15 1010.5 - - - - - - - - -
24/12:30pm 27.0 W 11 22 1010.6 - - - - - - - - -
24/12:00pm 26.1 W 12 16 1011.1 - - - - - - - - -
24/11:30am 25.6 W 10 16 1011.5 - - - - - - - - -
24/11:00am 24.8 W 11 16 1011.8 - - - - - - - - -
24/10:30am 24.3 W 6 10 1012.0 - - - - - - - - -
24/10:00am 23.7 W 4 6 1011.9 - - - - - - - - -
24/09:30am 23.2 W 6 7 1012.0 - - - - - - - - -
24/09:00am 23.2 WNW 11 15 1012.1 - - - - - - - - -
24/08:30am 23.1 WNW 11 16 1012.0 - - - - - - - - -
24/08:00am 22.8 WNW 4 10 1011.8 - - - - - - - - -
24/07:30am 19.8 WSW 2 4 1011.6 - - - - - - - - -
24/07:00am 18.8 WSW 2 3 1011.3 - - - - - - - - -
24/06:30am 18.3 WSW 1 5 1011.4 - - - - - - - - -
24/06:00am 21.3 N 3 6 1011.4 - - - - - - - - -
24/05:30am 19.2 WSW 2 6 1011.4 - - - - - - - - -
24/05:00am 20.4 NW 5 7 1011.2 - - - - - - - - -
24/04:30am 20.7 N 6 9 1011.4 - - - - - - - - -
24/04:00am 20.1 NNW 3 5 1011.4 - - - - - - - - -
24/03:30am 19.5 WSW 1 2 1011.5 - - - - - - - - -
24/03:00am 20.6 NNW 6 7 1011.8 - - - - - - - - -
24/02:30am 20.6 NNW 3 5 1012.2 - - - - - - - - -
24/02:00am 19.3 SW 2 3 1012.4 - - - - - - - - -
24/01:30am 19.9 WSW 2 3 1012.8 - - - - - - - - -
24/01:00am 20.4 W 3 5 1012.9 - - - - - - - - -
24/12:30am 20.0 CALM 0 2 1013.2 - - - - - - - - -
24/12:00am 21.1 WNW 3 6 1013.3 - - - - - - - - -
 
Date/Time
EST
Temp

°C
Wind Pressure Rain
since 9am
mm
Weather Cloud Vis
km
Sea
Height
m
Swell
Dir
 
Speed
knots
Gust
knots
hPa Trend Height
m
Period
s
Dir
23/11:30pm 21.0 N 2 4 1013.5 - - - - - - - - -
23/11:00pm 20.9 NNW 5 6 1013.7 - - - - - - - - -
23/10:30pm 21.5 N 8 10 1013.9 - - - - - - - - -
23/10:00pm 21.4 NW 6 8 1014.0 - - - - - - - - -
23/09:30pm 21.5 N 4 6 1014.2 - - - - - - - - -
23/09:00pm 21.6 N 5 7 1014.6 - - - - - - - - -
23/08:30pm 20.8 NW 4 6 1014.7 - - - - - - - - -
23/08:00pm 21.1 N 4 6 1014.8 - - - - - - - - -
23/07:30pm 21.1 NNW 4 5 1014.8 - - - - - - - - -
23/07:00pm 21.2 N 2 4 1014.8 - - - - - - - - -
23/06:30pm 21.4 N 3 5 1014.7 - - - - - - - - -
23/06:00pm 21.6 N 5 10 1014.5 - - - - - - - - -
23/05:30pm 21.7 NNE 7 10 1014.3 - - - - - - - - -
23/05:00pm 21.9 NNE 7 10 1014.1 - - - - - - - - -
23/04:30pm 22.0 NNE 7 9 1013.9 - - - - - - - - -
23/04:00pm 22.2 NNE 6 8 1013.9 - - - - - - - - -
23/03:30pm 22.1 NE 5 7 1014.1 - - - - - - - - -
23/03:00pm 22.1 NE 4 6 1014.2 - - - - - - - - -
23/02:30pm 22.1 NE 4 6 1014.3 - - - - - - - - -
23/02:00pm 22.1 NE 4 7 1014.5 - - - - - - - - -
23/01:30pm 22.1 NE 5 6 1014.6 - - - - - - - - -
23/01:00pm 22.1 ENE 5 7 1014.8 - - - - - - - - -
23/12:30pm 21.7 ENE 5 8 1015.2 - - - - - - - - -
23/12:00pm 21.7 E 3 5 1015.6 - - - - - - - - -
23/11:30am 21.4 ESE 4 5 1015.9 - - - - - - - - -
23/11:00am 21.8 ESE 4 5 1016.2 - - - - - - - - -
23/10:30am 21.4 ESE 3 4 1016.4 - - - - - - - - -
23/10:00am 21.7 ENE 1 4 1016.5 - - - - - - - - -
23/09:30am 22.3 N 1 3 1016.4 - - - - - - - - -
23/09:00am 20.5 WNW 1 3 1016.5 - - - - - - - - -
23/08:30am 19.5 W 2 3 1016.6 - - - - - - - - -
23/08:00am 18.5 W 3 4 1016.5 - - - - - - - - -
23/07:30am 17.4 WSW 3 4 1016.3 - - - - - - - - -
23/07:00am 16.7 W 3 4 1016.1 - - - - - - - - -
23/06:30am 16.5 WSW 3 4 1016.2 - - - - - - - - -
23/06:00am 16.7 WSW 4 5 1015.9 - - - - - - - - -
23/05:30am 16.3 WSW 3 4 1015.6 - - - - - - - - -
23/05:00am 16.9 W 4 5 1015.6 - - - - - - - - -
23/04:30am 16.4 WSW 4 6 1015.3 - - - - - - - - -
23/04:00am 17.3 W 3 4 1015.2 - - - - - - - - -
23/03:30am 16.9 WSW 4 5 1015.3 - - - - - - - - -
23/03:00am 17.0 WSW 4 5 1015.2 - - - - - - - - -
23/02:30am 17.1 WSW 4 5 1015.3 - - - - - - - - -
23/02:00am 17.9 W 3 4 1015.4 - - - - - - - - -
23/01:30am 18.2 WSW 4 5 1015.7 - - - - - - - - -
23/01:00am 18.4 WSW 3 4 1015.8 - - - - - - - - -
23/12:30am 18.4 WSW 3 4 1015.7 - - - - - - - - -

Other Formats:

Comma delimited format used in spreadsheet applications
http://www.bom.gov.au/fwo/IDN60701/IDN60701.95745.axf

JavaScript Object Notation format (JSON) in row-major order
http://www.bom.gov.au/fwo/IDN60701/IDN60701.95745.json